sensor_id;sensor_type;location;lat;lon;timestamp;P1;durP1;ratioP1;P2;durP2;ratioP2
46334;SDS011;32051;48.882;9.210;2023-04-10T00:00:43;11.75;;;8.23;;
46334;SDS011;32051;48.882;9.210;2023-04-10T00:03:10;11.52;;;8.27;;
46334;SDS011;32051;48.882;9.210;2023-04-10T00:05:36;8.68;;;7.70;;
46334;SDS011;32051;48.882;9.210;2023-04-10T00:08:02;8.60;;;7.78;;
46334;SDS011;32051;48.882;9.210;2023-04-10T00:10:29;8.82;;;7.75;;
46334;SDS011;32051;48.882;9.210;2023-04-10T00:12:56;8.30;;;7.40;;
46334;SDS011;32051;48.882;9.210;2023-04-10T00:15:24;8.90;;;8.00;;
46334;SDS011;32051;48.882;9.210;2023-04-10T00:17:51;9.25;;;8.00;;
46334;SDS011;32051;48.882;9.210;2023-04-10T00:20:19;8.25;;;7.50;;
46334;SDS011;32051;48.882;9.210;2023-04-10T00:22:46;10.00;;;7.60;;
46334;SDS011;32051;48.882;9.210;2023-04-10T00:25:12;8.05;;;7.35;;
46334;SDS011;32051;48.882;9.210;2023-04-10T00:27:38;9.15;;;8.02;;
46334;SDS011;32051;48.882;9.210;2023-04-10T00:30:05;9.52;;;8.52;;
46334;SDS011;32051;48.882;9.210;2023-04-10T00:32:31;7.97;;;7.18;;
46334;SDS011;32051;48.882;9.210;2023-04-10T00:34:58;9.70;;;8.05;;
46334;SDS011;32051;48.882;9.210;2023-04-10T00:37:24;8.32;;;7.47;;
46334;SDS011;32051;48.882;9.210;2023-04-10T00:39:50;8.52;;;7.68;;
46334;SDS011;32051;48.882;9.210;2023-04-10T00:42:16;9.38;;;8.43;;
46334;SDS011;32051;48.882;9.210;2023-04-10T00:44:42;8.35;;;7.55;;
46334;SDS011;32051;48.882;9.210;2023-04-10T00:47:08;10.40;;;8.73;;
46334;SDS011;32051;48.882;9.210;2023-04-10T00:49:34;8.88;;;7.97;;
46334;SDS011;32051;48.882;9.210;2023-04-10T00:52:01;9.75;;;8.73;;
46334;SDS011;32051;48.882;9.210;2023-04-10T00:54:27;8.80;;;7.50;;
46334;SDS011;32051;48.882;9.210;2023-04-10T00:56:53;8.93;;;7.93;;
46334;SDS011;32051;48.882;9.210;2023-04-10T00:59:21;9.48;;;7.80;;
46334;SDS011;32051;48.882;9.210;2023-04-10T01:01:47;8.88;;;8.07;;
46334;SDS011;32051;48.882;9.210;2023-04-10T01:04:13;8.88;;;7.97;;
46334;SDS011;32051;48.882;9.210;2023-04-10T01:11:49;8.50;;;7.40;;
46334;SDS011;32051;48.882;9.210;2023-04-10T01:16:56;10.18;;;8.57;;
46334;SDS011;32051;48.882;9.210;2023-04-10T01:19:24;9.07;;;8.15;;
46334;SDS011;32051;48.882;9.210;2023-04-10T01:21:52;10.00;;;8.25;;
46334;SDS011;32051;48.882;9.210;2023-04-10T01:24:31;11.68;;;8.93;;
46334;SDS011;32051;48.882;9.210;2023-04-10T01:27:10;9.52;;;8.65;;
46334;SDS011;32051;48.882;9.210;2023-04-10T01:29:39;9.27;;;8.27;;
46334;SDS011;32051;48.882;9.210;2023-04-10T01:32:14;10.35;;;9.02;;
46334;SDS011;32051;48.882;9.210;2023-04-10T01:34:43;12.52;;;8.95;;
46334;SDS011;32051;48.882;9.210;2023-04-10T01:37:15;9.05;;;7.97;;
46334;SDS011;32051;48.882;9.210;2023-04-10T01:39:41;9.82;;;8.52;;
46334;SDS011;32051;48.882;9.210;2023-04-10T01:42:09;8.43;;;7.20;;
46334;SDS011;32051;48.882;9.210;2023-04-10T01:44:40;11.45;;;9.30;;
46334;SDS011;32051;48.882;9.210;2023-04-10T01:47:07;10.48;;;8.40;;
46334;SDS011;32051;48.882;9.210;2023-04-10T01:49:33;9.52;;;8.52;;
46334;SDS011;32051;48.882;9.210;2023-04-10T01:52:02;12.35;;;9.00;;
46334;SDS011;32051;48.882;9.210;2023-04-10T01:54:31;9.63;;;8.13;;
46334;SDS011;32051;48.882;9.210;2023-04-10T01:56:58;9.48;;;8.55;;
46334;SDS011;32051;48.882;9.210;2023-04-10T01:59:25;10.50;;;8.85;;
46334;SDS011;32051;48.882;9.210;2023-04-10T02:01:58;10.05;;;8.13;;
46334;SDS011;32051;48.882;9.210;2023-04-10T02:04:25;9.90;;;8.15;;
46334;SDS011;32051;48.882;9.210;2023-04-10T02:12:36;10.93;;;8.10;;
46334;SDS011;32051;48.882;9.210;2023-04-10T02:15:04;13.07;;;8.27;;
46334;SDS011;32051;48.882;9.210;2023-04-10T02:17:32;9.00;;;8.10;;
46334;SDS011;32051;48.882;9.210;2023-04-10T02:20:01;9.35;;;7.78;;
46334;SDS011;32051;48.882;9.210;2023-04-10T02:22:28;12.07;;;8.52;;
46334;SDS011;32051;48.882;9.210;2023-04-10T02:24:56;9.70;;;8.18;;
46334;SDS011;32051;48.882;9.210;2023-04-10T02:27:29;10.35;;;8.43;;
46334;SDS011;32051;48.882;9.210;2023-04-10T02:29:57;9.82;;;8.52;;
46334;SDS011;32051;48.882;9.210;2023-04-10T02:32:24;8.95;;;8.05;;
46334;SDS011;32051;48.882;9.210;2023-04-10T02:34:51;8.38;;;7.68;;
46334;SDS011;32051;48.882;9.210;2023-04-10T02:37:17;9.02;;;7.68;;
46334;SDS011;32051;48.882;9.210;2023-04-10T02:39:43;9.27;;;8.25;;
46334;SDS011;32051;48.882;9.210;2023-04-10T02:42:10;12.00;;;9.35;;
46334;SDS011;32051;48.882;9.210;2023-04-10T02:44:37;9.50;;;8.50;;
46334;SDS011;32051;48.882;9.210;2023-04-10T02:47:04;10.43;;;8.35;;
46334;SDS011;32051;48.882;9.210;2023-04-10T02:49:33;8.73;;;7.82;;
46334;SDS011;32051;48.882;9.210;2023-04-10T02:52:06;10.57;;;9.27;;
46334;SDS011;32051;48.882;9.210;2023-04-10T02:54:32;9.85;;;8.75;;
46334;SDS011;32051;48.882;9.210;2023-04-10T02:56:58;9.68;;;8.68;;
46334;SDS011;32051;48.882;9.210;2023-04-10T02:59:25;8.52;;;7.55;;
46334;SDS011;32051;48.882;9.210;2023-04-10T03:01:52;8.75;;;7.85;;
46334;SDS011;32051;48.882;9.210;2023-04-10T03:04:18;8.77;;;7.60;;
46334;SDS011;32051;48.882;9.210;2023-04-10T03:06:44;10.45;;;8.65;;
46334;SDS011;32051;48.882;9.210;2023-04-10T03:09:11;9.40;;;8.48;;
46334;SDS011;32051;48.882;9.210;2023-04-10T03:11:37;9.38;;;8.45;;
46334;SDS011;32051;48.882;9.210;2023-04-10T03:14:03;8.50;;;7.75;;
46334;SDS011;32051;48.882;9.210;2023-04-10T03:16:29;9.27;;;8.32;;
46334;SDS011;32051;48.882;9.210;2023-04-10T03:18:55;9.82;;;8.45;;
46334;SDS011;32051;48.882;9.210;2023-04-10T03:21:22;9.52;;;8.23;;
46334;SDS011;32051;48.882;9.210;2023-04-10T03:23:48;8.30;;;7.55;;
46334;SDS011;32051;48.882;9.210;2023-04-10T03:26:14;8.10;;;7.35;;
46334;SDS011;32051;48.882;9.210;2023-04-10T03:28:40;10.07;;;8.20;;
46334;SDS011;32051;48.882;9.210;2023-04-10T03:31:08;9.18;;;8.00;;
46334;SDS011;32051;48.882;9.210;2023-04-10T03:36:07;9.25;;;7.40;;
46334;SDS011;32051;48.882;9.210;2023-04-10T03:38:33;8.15;;;7.40;;
46334;SDS011;32051;48.882;9.210;2023-04-10T03:41:00;8.30;;;7.35;;
46334;SDS011;32051;48.882;9.210;2023-04-10T03:43:29;9.85;;;8.82;;
46334;SDS011;32051;48.882;9.210;2023-04-10T03:45:59;13.10;;;8.88;;
46334;SDS011;32051;48.882;9.210;2023-04-10T03:48:25;8.55;;;7.70;;
46334;SDS011;32051;48.882;9.210;2023-04-10T03:50:53;7.68;;;6.88;;
46334;SDS011;32051;48.882;9.210;2023-04-10T03:53:19;8.82;;;8.02;;
46334;SDS011;32051;48.882;9.210;2023-04-10T03:55:45;10.15;;;8.27;;
46334;SDS011;32051;48.882;9.210;2023-04-10T03:58:12;9.80;;;8.27;;
46334;SDS011;32051;48.882;9.210;2023-04-10T04:00:38;8.45;;;7.63;;
46334;SDS011;32051;48.882;9.210;2023-04-10T04:03:15;8.15;;;7.35;;
46334;SDS011;32051;48.882;9.210;2023-04-10T04:06:01;9.27;;;7.85;;
46334;SDS011;32051;48.882;9.210;2023-04-10T04:08:35;8.00;;;7.20;;
46334;SDS011;32051;48.882;9.210;2023-04-10T04:11:08;7.63;;;6.93;;
46334;SDS011;32051;48.882;9.210;2023-04-10T04:13:45;9.20;;;8.10;;
46334;SDS011;32051;48.882;9.210;2023-04-10T04:16:24;8.10;;;7.25;;
46334;SDS011;32051;48.882;9.210;2023-04-10T04:19:10;7.15;;;6.47;;
46334;SDS011;32051;48.882;9.210;2023-04-10T04:21:38;9.65;;;7.38;;
46334;SDS011;32051;48.882;9.210;2023-04-10T04:24:14;8.38;;;7.68;;
46334;SDS011;32051;48.882;9.210;2023-04-10T04:26:58;7.35;;;6.57;;
46334;SDS011;32051;48.882;9.210;2023-04-10T04:29:44;10.90;;;7.57;;
46334;SDS011;32051;48.882;9.210;2023-04-10T04:32:17;9.55;;;7.45;;
46334;SDS011;32051;48.882;9.210;2023-04-10T04:35:15;8.52;;;7.55;;
46334;SDS011;32051;48.882;9.210;2023-04-10T04:37:41;7.75;;;6.60;;
46334;SDS011;32051;48.882;9.210;2023-04-10T04:40:37;7.78;;;7.07;;
46334;SDS011;32051;48.882;9.210;2023-04-10T04:43:10;7.50;;;6.88;;
46334;SDS011;32051;48.882;9.210;2023-04-10T04:46:04;8.07;;;7.20;;
46334;SDS011;32051;48.882;9.210;2023-04-10T04:48:48;7.82;;;6.75;;
46334;SDS011;32051;48.882;9.210;2023-04-10T04:51:37;10.52;;;6.63;;
46334;SDS011;32051;48.882;9.210;2023-04-10T04:54:08;7.50;;;6.57;;
46334;SDS011;32051;48.882;9.210;2023-04-10T04:56:49;8.55;;;7.78;;
46334;SDS011;32051;48.882;9.210;2023-04-10T04:59:29;8.05;;;7.30;;
46334;SDS011;32051;48.882;9.210;2023-04-10T05:02:13;8.50;;;7.70;;
46334;SDS011;32051;48.882;9.210;2023-04-10T05:05:04;11.23;;;7.85;;
46334;SDS011;32051;48.882;9.210;2023-04-10T05:08:00;8.07;;;7.28;;
46334;SDS011;32051;48.882;9.210;2023-04-10T05:10:44;8.55;;;7.53;;
46334;SDS011;32051;48.882;9.210;2023-04-10T05:13:28;7.75;;;6.88;;
46334;SDS011;32051;48.882;9.210;2023-04-10T05:16:30;8.43;;;6.65;;
46334;SDS011;32051;48.882;9.210;2023-04-10T05:19:16;9.18;;;8.13;;
46334;SDS011;32051;48.882;9.210;2023-04-10T05:22:03;8.60;;;7.80;;
46334;SDS011;32051;48.882;9.210;2023-04-10T05:24:47;8.60;;;6.50;;
46334;SDS011;32051;48.882;9.210;2023-04-10T05:27:20;8.25;;;7.32;;
46334;SDS011;32051;48.882;9.210;2023-04-10T05:30:04;7.90;;;7.10;;
46334;SDS011;32051;48.882;9.210;2023-04-10T05:32:59;10.50;;;7.93;;
46334;SDS011;32051;48.882;9.210;2023-04-10T05:36:01;7.20;;;6.55;;
46334;SDS011;32051;48.882;9.210;2023-04-10T05:38:50;8.30;;;7.30;;
46334;SDS011;32051;48.882;9.210;2023-04-10T05:41:35;9.00;;;7.93;;
46334;SDS011;32051;48.882;9.210;2023-04-10T05:44:19;7.55;;;6.32;;
46334;SDS011;32051;48.882;9.210;2023-04-10T05:46:59;8.10;;;6.70;;
46334;SDS011;32051;48.882;9.210;2023-04-10T05:49:43;7.20;;;6.60;;
46334;SDS011;32051;48.882;9.210;2023-04-10T05:52:15;7.55;;;6.72;;
46334;SDS011;32051;48.882;9.210;2023-04-10T05:54:41;7.55;;;6.85;;
46334;SDS011;32051;48.882;9.210;2023-04-10T05:57:15;7.85;;;7.05;;
46334;SDS011;32051;48.882;9.210;2023-04-10T06:00:02;7.97;;;7.30;;
46334;SDS011;32051;48.882;9.210;2023-04-10T06:03:00;7.90;;;7.10;;
46334;SDS011;32051;48.882;9.210;2023-04-10T06:05:28;7.72;;;7.03;;
46334;SDS011;32051;48.882;9.210;2023-04-10T06:07:59;7.10;;;6.50;;
46334;SDS011;32051;48.882;9.210;2023-04-10T06:10:27;7.35;;;6.57;;
46334;SDS011;32051;48.882;9.210;2023-04-10T06:12:53;6.55;;;6.00;;
46334;SDS011;32051;48.882;9.210;2023-04-10T06:15:21;7.70;;;7.10;;
46334;SDS011;32051;48.882;9.210;2023-04-10T06:17:48;7.57;;;6.88;;
46334;SDS011;32051;48.882;9.210;2023-04-10T06:20:14;8.93;;;7.63;;
46334;SDS011;32051;48.882;9.210;2023-04-10T06:22:40;8.00;;;7.22;;
46334;SDS011;32051;48.882;9.210;2023-04-10T06:25:06;8.23;;;7.43;;
46334;SDS011;32051;48.882;9.210;2023-04-10T06:27:33;6.72;;;6.00;;
46334;SDS011;32051;48.882;9.210;2023-04-10T06:30:00;7.32;;;6.72;;
46334;SDS011;32051;48.882;9.210;2023-04-10T06:32:26;8.10;;;7.30;;
46334;SDS011;32051;48.882;9.210;2023-04-10T06:34:52;7.50;;;6.57;;
46334;SDS011;32051;48.882;9.210;2023-04-10T06:37:19;6.95;;;6.32;;
46334;SDS011;32051;48.882;9.210;2023-04-10T06:39:45;6.40;;;5.85;;
46334;SDS011;32051;48.882;9.210;2023-04-10T06:42:11;6.45;;;5.93;;
46334;SDS011;32051;48.882;9.210;2023-04-10T06:44:54;7.32;;;6.70;;
46334;SDS011;32051;48.882;9.210;2023-04-10T06:47:20;8.00;;;7.20;;
46334;SDS011;32051;48.882;9.210;2023-04-10T06:49:46;7.78;;;6.95;;
46334;SDS011;32051;48.882;9.210;2023-04-10T06:52:12;6.65;;;6.05;;
46334;SDS011;32051;48.882;9.210;2023-04-10T06:54:39;6.68;;;6.07;;
46334;SDS011;32051;48.882;9.210;2023-04-10T06:57:05;7.25;;;6.65;;
46334;SDS011;32051;48.882;9.210;2023-04-10T06:59:31;6.35;;;5.88;;
46334;SDS011;32051;48.882;9.210;2023-04-10T07:01:58;6.13;;;5.55;;
46334;SDS011;32051;48.882;9.210;2023-04-10T07:04:24;6.63;;;6.03;;
46334;SDS011;32051;48.882;9.210;2023-04-10T07:06:50;6.03;;;5.60;;
46334;SDS011;32051;48.882;9.210;2023-04-10T07:09:15;6.22;;;5.72;;
46334;SDS011;32051;48.882;9.210;2023-04-10T07:11:41;6.88;;;5.93;;
46334;SDS011;32051;48.882;9.210;2023-04-10T07:14:07;6.15;;;5.65;;
46334;SDS011;32051;48.882;9.210;2023-04-10T07:16:33;7.05;;;6.45;;
46334;SDS011;32051;48.882;9.210;2023-04-10T07:18:58;6.05;;;5.55;;
46334;SDS011;32051;48.882;9.210;2023-04-10T07:21:24;6.30;;;5.80;;
46334;SDS011;32051;48.882;9.210;2023-04-10T07:23:51;6.40;;;5.80;;
46334;SDS011;32051;48.882;9.210;2023-04-10T07:26:17;6.45;;;5.85;;
46334;SDS011;32051;48.882;9.210;2023-04-10T07:28:43;6.95;;;6.25;;
46334;SDS011;32051;48.882;9.210;2023-04-10T07:31:09;6.20;;;5.63;;
46334;SDS011;32051;48.882;9.210;2023-04-10T07:33:36;5.35;;;4.93;;
46334;SDS011;32051;48.882;9.210;2023-04-10T07:36:02;5.15;;;4.65;;
46334;SDS011;32051;48.882;9.210;2023-04-10T07:38:30;5.57;;;5.07;;
46334;SDS011;32051;48.882;9.210;2023-04-10T07:40:56;5.50;;;5.10;;
46334;SDS011;32051;48.882;9.210;2023-04-10T07:43:22;10.27;;;5.45;;
46334;SDS011;32051;48.882;9.210;2023-04-10T07:45:48;4.93;;;4.45;;
46334;SDS011;32051;48.882;9.210;2023-04-10T07:48:14;4.63;;;4.22;;
46334;SDS011;32051;48.882;9.210;2023-04-10T07:50:40;4.68;;;3.88;;
46334;SDS011;32051;48.882;9.210;2023-04-10T07:53:06;4.53;;;4.13;;
46334;SDS011;32051;48.882;9.210;2023-04-10T07:55:36;4.65;;;4.32;;
46334;SDS011;32051;48.882;9.210;2023-04-10T07:58:03;6.07;;;4.35;;
46334;SDS011;32051;48.882;9.210;2023-04-10T08:00:29;4.30;;;4.00;;
46334;SDS011;32051;48.882;9.210;2023-04-10T08:02:55;3.55;;;3.30;;
46334;SDS011;32051;48.882;9.210;2023-04-10T08:05:21;4.35;;;4.00;;
46334;SDS011;32051;48.882;9.210;2023-04-10T08:07:47;4.38;;;4.05;;
46334;SDS011;32051;48.882;9.210;2023-04-10T08:10:13;4.15;;;3.83;;
46334;SDS011;32051;48.882;9.210;2023-04-10T08:12:39;4.00;;;3.70;;
46334;SDS011;32051;48.882;9.210;2023-04-10T08:15:06;3.60;;;3.40;;
46334;SDS011;32051;48.882;9.210;2023-04-10T08:17:32;3.80;;;3.50;;
46334;SDS011;32051;48.882;9.210;2023-04-10T08:19:58;5.32;;;4.93;;
46334;SDS011;32051;48.882;9.210;2023-04-10T08:22:24;4.15;;;3.85;;
46334;SDS011;32051;48.882;9.210;2023-04-10T08:24:50;3.80;;;3.53;;
46334;SDS011;32051;48.882;9.210;2023-04-10T08:27:16;4.57;;;3.80;;
46334;SDS011;32051;48.882;9.210;2023-04-10T08:29:41;3.58;;;3.38;;
46334;SDS011;32051;48.882;9.210;2023-04-10T08:32:07;3.58;;;3.28;;
46334;SDS011;32051;48.882;9.210;2023-04-10T08:34:33;3.80;;;3.45;;
46334;SDS011;32051;48.882;9.210;2023-04-10T08:36:59;3.92;;;3.65;;
46334;SDS011;32051;48.882;9.210;2023-04-10T08:39:25;4.13;;;3.83;;
46334;SDS011;32051;48.882;9.210;2023-04-10T08:41:51;3.95;;;3.65;;
46334;SDS011;32051;48.882;9.210;2023-04-10T08:44:18;3.47;;;3.28;;
46334;SDS011;32051;48.882;9.210;2023-04-10T08:46:46;3.33;;;3.13;;
46334;SDS011;32051;48.882;9.210;2023-04-10T08:49:16;3.53;;;3.22;;
46334;SDS011;32051;48.882;9.210;2023-04-10T08:51:52;3.97;;;3.78;;
46334;SDS011;32051;48.882;9.210;2023-04-10T08:54:29;3.65;;;3.30;;
46334;SDS011;32051;48.882;9.210;2023-04-10T08:56:57;4.47;;;3.78;;
46334;SDS011;32051;48.882;9.210;2023-04-10T08:59:26;3.95;;;3.65;;
46334;SDS011;32051;48.882;9.210;2023-04-10T09:01:53;3.80;;;3.55;;
46334;SDS011;32051;48.882;9.210;2023-04-10T09:04:20;3.58;;;3.38;;
46334;SDS011;32051;48.882;9.210;2023-04-10T09:06:46;4.18;;;3.85;;
46334;SDS011;32051;48.882;9.210;2023-04-10T09:09:14;3.72;;;3.45;;
46334;SDS011;32051;48.882;9.210;2023-04-10T09:14:19;3.22;;;3.03;;
46334;SDS011;32051;48.882;9.210;2023-04-10T09:16:46;2.80;;;2.60;;
46334;SDS011;32051;48.882;9.210;2023-04-10T09:19:12;2.72;;;2.53;;
46334;SDS011;32051;48.882;9.210;2023-04-10T09:21:49;2.85;;;2.65;;
46334;SDS011;32051;48.882;9.210;2023-04-10T09:24:14;2.95;;;2.65;;
46334;SDS011;32051;48.882;9.210;2023-04-10T09:26:40;3.15;;;2.95;;
46334;SDS011;32051;48.882;9.210;2023-04-10T09:29:06;2.20;;;2.10;;
46334;SDS011;32051;48.882;9.210;2023-04-10T09:31:35;2.65;;;2.47;;
46334;SDS011;32051;48.882;9.210;2023-04-10T09:36:43;3.10;;;2.90;;
46334;SDS011;32051;48.882;9.210;2023-04-10T09:39:20;2.03;;;1.92;;
46334;SDS011;32051;48.882;9.210;2023-04-10T09:41:56;2.63;;;2.42;;
46334;SDS011;32051;48.882;9.210;2023-04-10T09:44:30;3.10;;;2.80;;
46334;SDS011;32051;48.882;9.210;2023-04-10T09:49:48;2.65;;;2.45;;
46334;SDS011;32051;48.882;9.210;2023-04-10T09:52:17;2.10;;;2.00;;
46334;SDS011;32051;48.882;9.210;2023-04-10T09:54:53;1.95;;;1.85;;
46334;SDS011;32051;48.882;9.210;2023-04-10T09:57:24;2.33;;;2.10;;
46334;SDS011;32051;48.882;9.210;2023-04-10T09:59:52;2.42;;;2.28;;
46334;SDS011;32051;48.882;9.210;2023-04-10T10:02:20;2.92;;;2.72;;
46334;SDS011;32051;48.882;9.210;2023-04-10T10:04:48;1.88;;;1.77;;
46334;SDS011;32051;48.882;9.210;2023-04-10T10:07:18;2.10;;;2.00;;
46334;SDS011;32051;48.882;9.210;2023-04-10T10:09:46;3.08;;;2.35;;
46334;SDS011;32051;48.882;9.210;2023-04-10T10:12:15;1.90;;;1.70;;
46334;SDS011;32051;48.882;9.210;2023-04-10T10:15:05;2.42;;;2.33;;
46334;SDS011;32051;48.882;9.210;2023-04-10T10:17:32;2.45;;;2.25;;
46334;SDS011;32051;48.882;9.210;2023-04-10T10:20:01;1.52;;;1.42;;
46334;SDS011;32051;48.882;9.210;2023-04-10T10:22:27;1.80;;;1.70;;
46334;SDS011;32051;48.882;9.210;2023-04-10T10:24:54;4.28;;;1.70;;
46334;SDS011;32051;48.882;9.210;2023-04-10T10:27:23;1.73;;;1.63;;
46334;SDS011;32051;48.882;9.210;2023-04-10T10:29:52;2.53;;;2.33;;
46334;SDS011;32051;48.882;9.210;2023-04-10T10:32:19;1.90;;;1.80;;
46334;SDS011;32051;48.882;9.210;2023-04-10T10:34:50;1.52;;;1.42;;
46334;SDS011;32051;48.882;9.210;2023-04-10T10:37:17;1.52;;;1.42;;
46334;SDS011;32051;48.882;9.210;2023-04-10T10:42:38;2.33;;;2.13;;
46334;SDS011;32051;48.882;9.210;2023-04-10T10:45:12;1.38;;;1.38;;
46334;SDS011;32051;48.882;9.210;2023-04-10T10:47:47;1.60;;;1.50;;
46334;SDS011;32051;48.882;9.210;2023-04-10T10:50:18;1.40;;;1.30;;
46334;SDS011;32051;48.882;9.210;2023-04-10T10:52:46;1.13;;;1.10;;
46334;SDS011;32051;48.882;9.210;2023-04-10T10:57:54;1.63;;;1.52;;
46334;SDS011;32051;48.882;9.210;2023-04-10T11:00:22;1.33;;;1.23;;
46334;SDS011;32051;48.882;9.210;2023-04-10T11:05:48;1.55;;;1.45;;
46334;SDS011;32051;48.882;9.210;2023-04-10T11:08:52;2.20;;;1.90;;
46334;SDS011;32051;48.882;9.210;2023-04-10T11:11:15;1.70;;;1.60;;
46334;SDS011;32051;48.882;9.210;2023-04-10T11:16:16;4.18;;;1.83;;
46334;SDS011;32051;48.882;9.210;2023-04-10T11:21:15;1.13;;;1.10;;
46334;SDS011;32051;48.882;9.210;2023-04-10T11:28:57;1.20;;;1.10;;
46334;SDS011;32051;48.882;9.210;2023-04-10T11:31:24;1.10;;;1.00;;
46334;SDS011;32051;48.882;9.210;2023-04-10T11:41:20;0.75;;;0.75;;
46334;SDS011;32051;48.882;9.210;2023-04-10T11:43:51;1.23;;;1.23;;
46334;SDS011;32051;48.882;9.210;2023-04-10T11:46:17;0.80;;;0.80;;
46334;SDS011;32051;48.882;9.210;2023-04-10T11:48:43;0.90;;;0.90;;
46334;SDS011;32051;48.882;9.210;2023-04-10T11:51:09;0.90;;;0.70;;
46334;SDS011;32051;48.882;9.210;2023-04-10T11:53:37;1.38;;;1.08;;
46334;SDS011;32051;48.882;9.210;2023-04-10T11:56:03;0.90;;;0.90;;
46334;SDS011;32051;48.882;9.210;2023-04-10T11:58:31;0.85;;;0.85;;
46334;SDS011;32051;48.882;9.210;2023-04-10T12:01:01;1.48;;;1.10;;
46334;SDS011;32051;48.882;9.210;2023-04-10T12:05:56;0.70;;;0.70;;
46334;SDS011;32051;48.882;9.210;2023-04-10T12:08:29;1.00;;;1.00;;
46334;SDS011;32051;48.882;9.210;2023-04-10T12:10:58;2.92;;;1.25;;
46334;SDS011;32051;48.882;9.210;2023-04-10T12:13:25;2.50;;;0.77;;
46334;SDS011;32051;48.882;9.210;2023-04-10T12:15:52;0.80;;;0.80;;
46334;SDS011;32051;48.882;9.210;2023-04-10T12:18:18;1.50;;;0.77;;
46334;SDS011;32051;48.882;9.210;2023-04-10T12:20:45;0.70;;;0.70;;
46334;SDS011;32051;48.882;9.210;2023-04-10T12:23:12;0.77;;;0.77;;
46334;SDS011;32051;48.882;9.210;2023-04-10T12:25:38;1.08;;;0.98;;
46334;SDS011;32051;48.882;9.210;2023-04-10T12:28:04;1.70;;;1.60;;
46334;SDS011;32051;48.882;9.210;2023-04-10T12:30:30;0.85;;;0.85;;
46334;SDS011;32051;48.882;9.210;2023-04-10T12:32:55;8.73;;;2.22;;
46334;SDS011;32051;48.882;9.210;2023-04-10T12:35:36;0.55;;;0.55;;
46334;SDS011;32051;48.882;9.210;2023-04-10T12:38:02;0.80;;;0.65;;
46334;SDS011;32051;48.882;9.210;2023-04-10T12:40:28;4.15;;;0.68;;
46334;SDS011;32051;48.882;9.210;2023-04-10T12:42:54;2.75;;;0.60;;
46334;SDS011;32051;48.882;9.210;2023-04-10T12:45:20;0.40;;;0.30;;
46334;SDS011;32051;48.882;9.210;2023-04-10T12:47:49;0.55;;;0.40;;
46334;SDS011;32051;48.882;9.210;2023-04-10T12:50:18;0.70;;;0.70;;
46334;SDS011;32051;48.882;9.210;2023-04-10T12:53:03;0.88;;;0.85;;
46334;SDS011;32051;48.882;9.210;2023-04-10T12:55:34;0.57;;;0.57;;
46334;SDS011;32051;48.882;9.210;2023-04-10T12:58:18;0.20;;;0.20;;
46334;SDS011;32051;48.882;9.210;2023-04-10T13:00:56;0.55;;;0.55;;
46334;SDS011;32051;48.882;9.210;2023-04-10T13:03:23;2.08;;;0.85;;
46334;SDS011;32051;48.882;9.210;2023-04-10T13:05:50;0.60;;;0.60;;
46334;SDS011;32051;48.882;9.210;2023-04-10T13:08:16;0.80;;;0.50;;
46334;SDS011;32051;48.882;9.210;2023-04-10T13:10:42;0.50;;;0.50;;
46334;SDS011;32051;48.882;9.210;2023-04-10T13:13:08;0.80;;;0.80;;
46334;SDS011;32051;48.882;9.210;2023-04-10T13:15:37;0.47;;;0.47;;
46334;SDS011;32051;48.882;9.210;2023-04-10T13:18:03;0.60;;;0.60;;
46334;SDS011;32051;48.882;9.210;2023-04-10T13:20:35;0.50;;;0.50;;
46334;SDS011;32051;48.882;9.210;2023-04-10T13:23:01;0.50;;;0.40;;
46334;SDS011;32051;48.882;9.210;2023-04-10T13:25:31;0.70;;;0.70;;
46334;SDS011;32051;48.882;9.210;2023-04-10T13:27:59;3.53;;;0.70;;
46334;SDS011;32051;48.882;9.210;2023-04-10T13:30:27;0.77;;;0.77;;
46334;SDS011;32051;48.882;9.210;2023-04-10T13:32:53;0.60;;;0.60;;
46334;SDS011;32051;48.882;9.210;2023-04-10T13:35:20;0.50;;;0.50;;
46334;SDS011;32051;48.882;9.210;2023-04-10T13:37:46;0.55;;;0.55;;
46334;SDS011;32051;48.882;9.210;2023-04-10T13:40:12;0.47;;;0.47;;
46334;SDS011;32051;48.882;9.210;2023-04-10T13:42:38;0.60;;;0.60;;
46334;SDS011;32051;48.882;9.210;2023-04-10T13:45:04;1.20;;;0.90;;
46334;SDS011;32051;48.882;9.210;2023-04-10T13:47:30;2.97;;;0.70;;
46334;SDS011;32051;48.882;9.210;2023-04-10T13:49:58;0.95;;;0.95;;
46334;SDS011;32051;48.882;9.210;2023-04-10T13:52:25;3.13;;;0.47;;
46334;SDS011;32051;48.882;9.210;2023-04-10T13:54:53;0.60;;;0.57;;
46334;SDS011;32051;48.882;9.210;2023-04-10T13:57:19;2.70;;;0.90;;
46334;SDS011;32051;48.882;9.210;2023-04-10T13:59:45;0.75;;;0.75;;
46334;SDS011;32051;48.882;9.210;2023-04-10T14:02:11;0.70;;;0.70;;
46334;SDS011;32051;48.882;9.210;2023-04-10T14:04:37;0.73;;;0.70;;
46334;SDS011;32051;48.882;9.210;2023-04-10T14:07:02;1.92;;;1.38;;
46334;SDS011;32051;48.882;9.210;2023-04-10T14:09:28;0.73;;;0.73;;
46334;SDS011;32051;48.882;9.210;2023-04-10T14:11:54;0.80;;;0.80;;
46334;SDS011;32051;48.882;9.210;2023-04-10T14:14:23;1.63;;;1.52;;
46334;SDS011;32051;48.882;9.210;2023-04-10T14:16:49;0.77;;;0.77;;
46334;SDS011;32051;48.882;9.210;2023-04-10T14:19:15;1.00;;;1.00;;
46334;SDS011;32051;48.882;9.210;2023-04-10T14:21:41;1.70;;;1.60;;
46334;SDS011;32051;48.882;9.210;2023-04-10T14:24:08;1.10;;;1.10;;
46334;SDS011;32051;48.882;9.210;2023-04-10T14:26:34;1.95;;;1.83;;
46334;SDS011;32051;48.882;9.210;2023-04-10T14:29:00;2.03;;;1.50;;
46334;SDS011;32051;48.882;9.210;2023-04-10T14:31:26;0.90;;;0.90;;
46334;SDS011;32051;48.882;9.210;2023-04-10T14:33:51;2.55;;;0.90;;
46334;SDS011;32051;48.882;9.210;2023-04-10T14:36:17;0.70;;;0.70;;
46334;SDS011;32051;48.882;9.210;2023-04-10T14:38:43;0.77;;;0.77;;
46334;SDS011;32051;48.882;9.210;2023-04-10T14:41:08;0.60;;;0.60;;
46334;SDS011;32051;48.882;9.210;2023-04-10T14:43:34;0.70;;;0.68;;
46334;SDS011;32051;48.882;9.210;2023-04-10T14:46:00;0.60;;;0.60;;
46334;SDS011;32051;48.882;9.210;2023-04-10T14:48:26;0.73;;;0.73;;
46334;SDS011;32051;48.882;9.210;2023-04-10T14:50:52;0.70;;;0.70;;
46334;SDS011;32051;48.882;9.210;2023-04-10T14:53:18;0.80;;;0.80;;
46334;SDS011;32051;48.882;9.210;2023-04-10T14:55:46;1.10;;;1.00;;
46334;SDS011;32051;48.882;9.210;2023-04-10T14:58:11;3.05;;;0.60;;
46334;SDS011;32051;48.882;9.210;2023-04-10T15:00:37;1.05;;;1.05;;
46334;SDS011;32051;48.882;9.210;2023-04-10T15:03:03;0.80;;;0.80;;
46334;SDS011;32051;48.882;9.210;2023-04-10T15:05:30;0.90;;;0.90;;
46334;SDS011;32051;48.882;9.210;2023-04-10T15:07:56;2.90;;;0.90;;
46334;SDS011;32051;48.882;9.210;2023-04-10T15:10:21;0.52;;;0.52;;
46334;SDS011;32051;48.882;9.210;2023-04-10T15:12:48;0.93;;;0.80;;
46334;SDS011;32051;48.882;9.210;2023-04-10T15:15:14;0.77;;;0.77;;
46334;SDS011;32051;48.882;9.210;2023-04-10T15:17:40;0.60;;;0.60;;
46334;SDS011;32051;48.882;9.210;2023-04-10T15:20:05;0.73;;;0.73;;
46334;SDS011;32051;48.882;9.210;2023-04-10T15:22:31;0.95;;;0.95;;
46334;SDS011;32051;48.882;9.210;2023-04-10T15:24:58;0.90;;;0.90;;
46334;SDS011;32051;48.882;9.210;2023-04-10T15:27:24;6.03;;;1.05;;
46334;SDS011;32051;48.882;9.210;2023-04-10T15:29:50;0.65;;;0.65;;
46334;SDS011;32051;48.882;9.210;2023-04-10T15:32:16;0.80;;;0.80;;
46334;SDS011;32051;48.882;9.210;2023-04-10T15:34:42;1.25;;;1.13;;
46334;SDS011;32051;48.882;9.210;2023-04-10T15:37:09;1.25;;;1.00;;
46334;SDS011;32051;48.882;9.210;2023-04-10T15:39:35;0.82;;;0.82;;
46334;SDS011;32051;48.882;9.210;2023-04-10T15:42:02;9.57;;;0.88;;
46334;SDS011;32051;48.882;9.210;2023-04-10T15:44:29;0.80;;;0.80;;
46334;SDS011;32051;48.882;9.210;2023-04-10T15:46:55;1.02;;;1.00;;
46334;SDS011;32051;48.882;9.210;2023-04-10T15:49:21;1.20;;;1.05;;
46334;SDS011;32051;48.882;9.210;2023-04-10T15:51:47;1.23;;;0.73;;